Time;durP1;ratioP1;P1;durP2;ratioP2;P2;SDS_P1;SDS_P2;PMS_P1;PMS_P2;Temp;Humidity;BMP_temperature;BMP_pressure;BME280_temperature;BME280_humidity;BME280_pressure;Samples;Min_cycle;Max_cycle;Signal;HPM_P1;HPM_P2
2023/06/14 00:00:52;;;;;;;11.68;4.38;;;18.30;99.90;;;;;;4955251;29;20027;-75
2023/06/14 00:03:19;;;;;;;12.15;5.22;;;18.20;99.90;;;;;;4955218;29;20514;-76
2023/06/14 00:05:46;;;;;;;8.77;4.45;;;18.20;99.90;;;;;;4955135;29;20023;-75
2023/06/14 00:08:12;;;;;;;9.68;4.35;;;18.20;99.90;;;;;;4955211;29;20074;-74
2023/06/14 00:10:38;;;;;;;11.65;4.10;;;18.20;99.90;;;;;;4954871;29;20130;-76
2023/06/14 00:13:04;;;;;;;11.75;4.45;;;18.10;99.90;;;;;;4955356;29;20058;-75
2023/06/14 00:15:31;;;;;;;8.25;4.57;;;18.10;99.90;;;;;;4955170;29;20113;-76
2023/06/14 00:18:00;;;;;;;10.98;4.43;;;18.10;99.90;;;;;;4954971;29;20515;-76
2023/06/14 00:20:27;;;;;;;10.10;4.72;;;18.10;99.90;;;;;;4955055;29;20097;-76
2023/06/14 00:22:53;;;;;;;11.35;4.47;;;18.10;99.90;;;;;;4954679;29;20118;-75
2023/06/14 00:25:19;;;;;;;7.20;4.10;;;18.10;99.90;;;;;;4954010;28;20033;-78
2023/06/14 00:27:45;;;;;;;11.30;4.45;;;18.00;99.90;;;;;;4937526;29;20027;-76
2023/06/14 00:30:11;;;;;;;12.20;4.80;;;18.00;99.90;;;;;;4954704;29;20065;-75
2023/06/14 00:32:36;;;;;;;10.77;4.18;;;18.00;99.90;;;;;;4954988;29;20032;-76
2023/06/14 00:35:02;;;;;;;10.27;4.45;;;18.00;99.90;;;;;;4937456;29;20083;-75
2023/06/14 00:37:28;;;;;;;12.30;4.43;;;18.00;99.90;;;;;;4954807;29;20035;-76
2023/06/14 00:39:53;;;;;;;9.95;4.53;;;18.00;99.90;;;;;;4954530;29;20027;-74
2023/06/14 00:42:26;;;;;;;9.20;4.25;;;18.00;99.90;;;;;;4954043;29;20061;-74
2023/06/14 00:44:52;;;;;;;11.93;5.03;;;18.00;99.90;;;;;;4954608;29;20093;-75
2023/06/14 00:47:18;;;;;;;10.15;4.18;;;18.00;99.90;;;;;;4953953;29;20468;-75
2023/06/14 00:49:45;;;;;;;10.75;4.85;;;17.90;99.90;;;;;;4954585;29;20027;-76
2023/06/14 00:52:12;;;;;;;8.88;4.15;;;18.00;99.90;;;;;;4954317;29;20086;-76
2023/06/14 00:54:41;;;;;;;10.75;4.80;;;17.90;99.90;;;;;;4954511;29;20057;-76
2023/06/14 00:57:07;;;;;;;11.07;4.00;;;17.90;99.90;;;;;;4953506;29;20027;-75
2023/06/14 00:59:33;;;;;;;11.13;4.55;;;17.90;99.90;;;;;;4917653;29;20031;-76
2023/06/14 01:01:58;;;;;;;9.57;4.22;;;17.90;99.90;;;;;;4935217;29;20376;-75
2023/06/14 01:04:24;;;;;;;10.88;4.32;;;17.90;99.90;;;;;;4934868;29;20059;-75
2023/06/14 01:06:50;;;;;;;10.57;4.40;;;17.90;99.90;;;;;;4935125;29;20039;-78
2023/06/14 01:09:32;;;;;;;10.35;4.13;;;17.80;99.90;;;;;;4934978;29;20039;-75
2023/06/14 01:12:24;;;;;;;9.52;4.53;;;17.80;99.90;;;;;;4934999;29;20036;-75
2023/06/14 01:14:51;;;;;;;10.15;4.05;;;17.80;99.90;;;;;;4935050;29;20071;-77
2023/06/14 01:17:17;;;;;;;9.10;4.43;;;17.80;99.90;;;;;;4934604;29;20039;-76
2023/06/14 01:19:45;;;;;;;12.32;3.83;;;17.80;99.90;;;;;;4935150;29;20023;-75
2023/06/14 01:22:11;;;;;;;8.88;3.78;;;17.70;99.90;;;;;;4935420;29;20031;-78
2023/06/14 01:24:39;;;;;;;9.55;4.22;;;17.70;99.90;;;;;;4934607;29;20024;-76
2023/06/14 01:27:06;;;;;;;9.80;4.40;;;17.70;99.90;;;;;;4935114;29;20143;-78
2023/06/14 01:29:33;;;;;;;9.93;4.13;;;17.70;99.90;;;;;;4934513;29;20072;-74
2023/06/14 01:32:00;;;;;;;10.68;4.20;;;17.70;99.90;;;;;;4934104;29;20067;-75
2023/06/14 01:34:26;;;;;;;8.10;3.88;;;17.70;99.90;;;;;;4917668;29;20028;-74
2023/06/14 01:36:53;;;;;;;8.93;3.88;;;17.70;99.90;;;;;;4937593;29;20083;-75
2023/06/14 01:39:19;;;;;;;10.35;4.18;;;17.70;99.90;;;;;;4921632;29;20376;-73
2023/06/14 01:41:46;;;;;;;11.65;4.35;;;17.60;99.90;;;;;;4938550;29;20059;-75
2023/06/14 01:44:15;;;;;;;11.38;4.40;;;17.60;99.90;;;;;;4938429;29;20055;-75
2023/06/14 01:46:41;;;;;;;7.03;3.67;;;17.60;99.90;;;;;;4938427;29;20079;-78
2023/06/14 01:49:08;;;;;;;6.97;3.90;;;17.60;99.90;;;;;;4938328;29;20102;-75
2023/06/14 01:51:33;;;;;;;11.38;4.05;;;17.60;99.90;;;;;;4938474;29;20031;-74
2023/06/14 01:54:00;;;;;;;12.43;3.80;;;17.60;99.90;;;;;;4938437;29;20028;-74
2023/06/14 01:56:26;;;;;;;9.05;3.65;;;17.50;99.90;;;;;;4921288;29;20087;-76
2023/06/14 01:58:53;;;;;;;8.88;3.70;;;17.50;99.90;;;;;;4952189;29;20031;-75
2023/06/14 02:01:21;;;;;;;10.15;4.22;;;17.50;99.90;;;;;;4957518;28;20544;-76
2023/06/14 02:03:48;;;;;;;9.13;3.53;;;17.50;99.90;;;;;;4957504;28;20141;-75
2023/06/14 02:06:13;;;;;;;8.50;3.60;;;17.40;99.90;;;;;;4939821;29;20031;-77
2023/06/14 02:08:39;;;;;;;12.57;3.97;;;17.40;99.90;;;;;;4957374;29;20034;-76
2023/06/14 02:11:05;;;;;;;12.05;4.07;;;17.40;99.90;;;;;;4957352;29;20074;-75
2023/06/14 02:13:30;;;;;;;9.80;4.07;;;17.40;99.90;;;;;;4939755;29;20059;-78
2023/06/14 02:15:57;;;;;;;11.50;3.53;;;17.40;99.90;;;;;;4956908;28;20383;-75
2023/06/14 02:18:23;;;;;;;6.72;3.53;;;17.40;99.90;;;;;;4956920;29;20031;-75
2023/06/14 02:20:48;;;;;;;10.80;3.95;;;17.40;99.90;;;;;;4957299;29;20550;-76
2023/06/14 02:23:14;;;;;;;8.13;3.30;;;17.40;99.90;;;;;;4957046;28;20064;-74
2023/06/14 02:25:40;;;;;;;11.02;3.88;;;17.40;99.90;;;;;;4957169;29;20030;-76
2023/06/14 02:28:06;;;;;;;8.57;3.67;;;17.40;99.90;;;;;;4956395;29;20084;-78
2023/06/14 02:30:31;;;;;;;17.70;6.13;;;17.40;99.90;;;;;;4956957;29;20038;-77
2023/06/14 02:32:57;;;;;;;8.35;3.53;;;17.40;99.90;;;;;;4956897;29;20023;-75
2023/06/14 02:35:26;;;;;;;10.85;3.88;;;17.40;99.90;;;;;;4956768;28;20031;-75
2023/06/14 02:37:52;;;;;;;8.02;3.33;;;17.40;99.90;;;;;;4956708;29;20027;-75
2023/06/14 02:40:18;;;;;;;7.47;3.20;;;17.40;99.90;;;;;;4956756;29;20034;-77
2023/06/14 02:42:44;;;;;;;9.30;3.40;;;17.40;99.90;;;;;;4956125;28;20047;-75
2023/06/14 02:45:09;;;;;;;13.02;3.47;;;17.40;99.90;;;;;;4956777;29;20028;-76
2023/06/14 02:47:35;;;;;;;11.48;3.38;;;17.40;99.90;;;;;;4956050;28;20027;-73
2023/06/14 02:50:02;;;;;;;7.93;3.17;;;17.40;99.90;;;;;;4956717;28;20039;-78
2023/06/14 02:52:28;;;;;;;9.02;3.20;;;17.40;99.90;;;;;;4956743;28;20479;-75
2023/06/14 02:54:54;;;;;;;6.95;3.20;;;17.40;99.90;;;;;;4939371;29;20042;-75
2023/06/14 02:57:20;;;;;;;11.95;3.80;;;17.40;99.90;;;;;;4956258;29;20118;-76
2023/06/14 02:59:46;;;;;;;6.65;3.17;;;17.40;99.90;;;;;;4956263;28;20468;-79
2023/06/14 03:02:11;;;;;;;10.15;3.08;;;17.30;99.90;;;;;;4956933;28;20067;-78
2023/06/14 03:04:37;;;;;;;12.88;4.72;;;17.30;99.90;;;;;;4956465;28;20020;-74
2023/06/14 03:07:08;;;;;;;8.40;3.40;;;17.30;99.90;;;;;;4956176;28;20380;-76
2023/06/14 03:09:38;;;;;;;10.03;3.60;;;17.30;99.90;;;;;;4956499;29;20031;-77
2023/06/14 03:12:06;;;;;;;7.55;3.25;;;17.30;99.90;;;;;;4956096;29;20336;-75
2023/06/14 03:14:32;;;;;;;11.70;3.33;;;17.30;99.90;;;;;;4956245;28;20058;-79
2023/06/14 03:16:58;;;;;;;8.73;3.60;;;17.30;99.90;;;;;;4956278;29;20032;-75
2023/06/14 03:19:25;;;;;;;9.38;3.47;;;17.30;99.90;;;;;;4956163;28;20023;-75
2023/06/14 03:21:51;;;;;;;7.60;3.15;;;17.30;99.90;;;;;;4956064;28;20023;-76
2023/06/14 03:24:17;;;;;;;12.95;3.47;;;17.30;99.90;;;;;;4955763;28;20352;-78
2023/06/14 03:26:43;;;;;;;10.82;3.13;;;17.30;99.90;;;;;;4956051;29;20498;-77
2023/06/14 03:29:08;;;;;;;7.53;3.10;;;17.30;99.90;;;;;;4955665;29;20034;-76
2023/06/14 03:31:34;;;;;;;8.50;3.58;;;17.30;99.90;;;;;;4955755;29;20043;-77
2023/06/14 03:34:01;;;;;;;7.82;3.88;;;17.30;99.90;;;;;;4955966;29;20023;-75
2023/06/14 03:36:27;;;;;;;8.52;3.00;;;17.30;99.90;;;;;;4955342;28;20061;-74
2023/06/14 03:38:55;;;;;;;10.93;3.58;;;17.30;99.90;;;;;;4955456;28;20019;-76
2023/06/14 03:41:20;;;;;;;9.15;3.17;;;17.30;99.90;;;;;;4955495;29;20027;-75
2023/06/14 03:43:46;;;;;;;8.25;3.03;;;17.30;99.90;;;;;;4955824;29;20106;-74
2023/06/14 03:46:11;;;;;;;8.90;3.28;;;17.30;99.90;;;;;;4955802;29;20069;-74
2023/06/14 03:48:38;;;;;;;11.23;3.13;;;17.30;99.90;;;;;;4955506;28;20031;-75
2023/06/14 03:51:04;;;;;;;7.13;2.83;;;17.40;99.90;;;;;;4937933;29;20058;-75
2023/06/14 03:53:29;;;;;;;8.45;3.42;;;17.40;99.90;;;;;;4955334;28;20035;-76
2023/06/14 03:55:55;;;;;;;11.60;3.30;;;17.40;99.90;;;;;;4955136;29;20031;-75
2023/06/14 03:58:20;;;;;;;7.80;3.45;;;17.40;99.90;;;;;;4954878;28;20038;-75
2023/06/14 04:00:47;;;;;;;9.30;3.08;;;17.40;99.90;;;;;;4954631;29;20090;-74
2023/06/14 04:03:13;;;;;;;4.88;3.25;;;17.40;99.90;;;;;;4956048;28;20035;-75
2023/06/14 04:05:42;;;;;;;6.97;3.30;;;17.40;99.90;;;;;;4955441;28;20452;-75
2023/06/14 04:08:10;;;;;;;6.00;3.22;;;17.40;99.90;;;;;;4955419;29;20031;-78
2023/06/14 04:10:36;;;;;;;10.05;3.78;;;17.40;99.90;;;;;;4955466;29;20089;-75
2023/06/14 04:13:01;;;;;;;6.43;2.75;;;17.40;99.90;;;;;;4955550;28;20031;-76
2023/06/14 04:15:30;;;;;;;7.55;3.65;;;17.40;99.90;;;;;;4955813;29;20118;-78
2023/06/14 04:17:57;;;;;;;10.85;3.28;;;17.50;99.90;;;;;;4955429;29;20081;-75
2023/06/14 04:20:24;;;;;;;7.68;3.70;;;17.50;99.90;;;;;;4955205;29;20134;-75
2023/06/14 04:22:49;;;;;;;14.75;3.90;;;17.50;99.90;;;;;;4938000;29;20027;-77
2023/06/14 04:25:15;;;;;;;8.98;3.20;;;17.50;99.90;;;;;;4955125;29;20035;-73
2023/06/14 04:27:41;;;;;;;14.40;4.15;;;17.50;99.90;;;;;;4955135;28;20038;-76
2023/06/14 04:30:07;;;;;;;11.05;3.60;;;17.60;99.90;;;;;;4955058;29;20098;-76
2023/06/14 04:32:38;;;;;;;9.63;3.28;;;17.60;99.90;;;;;;4955145;29;20043;-75
2023/06/14 04:35:03;;;;;;;9.18;3.47;;;17.60;99.90;;;;;;4954637;29;20032;-76
2023/06/14 04:37:30;;;;;;;8.63;3.33;;;17.70;99.90;;;;;;4953049;29;20032;-74
2023/06/14 04:39:56;;;;;;;9.05;3.50;;;17.80;99.90;;;;;;4953892;29;20082;-74
2023/06/14 04:42:24;;;;;;;8.40;3.10;;;17.80;99.90;;;;;;4954688;29;20091;-73
2023/06/14 04:44:51;;;;;;;11.95;3.92;;;17.80;99.90;;;;;;4955107;29;20051;-75
2023/06/14 04:47:17;;;;;;;10.38;4.05;;;18.00;99.90;;;;;;4954450;29;20391;-75
2023/06/14 04:49:44;;;;;;;7.00;3.30;;;18.00;99.90;;;;;;4954514;29;20035;-76
2023/06/14 04:52:10;;;;;;;11.52;3.53;;;18.10;99.90;;;;;;4954613;29;20039;-75
2023/06/14 04:54:41;;;;;;;6.60;3.25;;;18.10;99.90;;;;;;4954645;29;20098;-78
2023/06/14 04:57:07;;;;;;;9.80;3.20;;;18.20;99.90;;;;;;4937259;29;20031;-75
2023/06/14 04:59:35;;;;;;;10.73;3.10;;;18.30;99.90;;;;;;4936900;29;20039;-75
2023/06/14 05:02:01;;;;;;;8.35;2.70;;;18.40;99.90;;;;;;4936142;29;20031;-75
2023/06/14 05:04:27;;;;;;;7.97;2.97;;;18.50;99.90;;;;;;4954596;29;20031;-75
2023/06/14 05:06:54;;;;;;;9.88;3.45;;;18.60;99.90;;;;;;4937499;29;20122;-73
2023/06/14 05:09:20;;;;;;;8.07;3.38;;;18.70;99.90;;;;;;4954622;29;20061;-76
2023/06/14 05:11:47;;;;;;;12.18;3.45;;;18.80;99.90;;;;;;4954290;28;20046;-77
2023/06/14 05:14:13;;;;;;;9.35;3.22;;;18.90;99.90;;;;;;4954168;29;20027;-75
2023/06/14 05:16:40;;;;;;;10.48;3.00;;;19.10;99.90;;;;;;4954295;29;20035;-75
2023/06/14 05:19:06;;;;;;;12.43;4.20;;;19.20;99.90;;;;;;4954299;29;20061;-77
2023/06/14 05:21:34;;;;;;;11.52;3.30;;;19.30;99.90;;;;;;4953232;28;20032;-75
2023/06/14 05:24:00;;;;;;;12.98;2.90;;;19.50;99.90;;;;;;4960256;28;20045;-76
2023/06/14 05:26:28;;;;;;;9.57;3.45;;;19.90;99.10;;;;;;4972478;28;20102;-75
2023/06/14 05:28:56;;;;;;;12.65;2.90;;;20.20;98.40;;;;;;4950125;29;20020;-77
2023/06/14 05:31:23;;;;;;;12.38;3.60;;;20.80;97.10;;;;;;4942997;29;20498;-76
2023/06/14 05:33:48;;;;;;;12.63;2.80;;;21.40;96.10;;;;;;4942862;29;20035;-75
2023/06/14 05:36:14;;;;;;;10.95;3.00;;;22.00;94.80;;;;;;4950107;29;20388;-76
2023/06/14 05:38:39;;;;;;;6.45;2.67;;;22.50;93.50;;;;;;4938479;29;20464;-75
2023/06/14 05:41:05;;;;;;;5.65;2.60;;;23.10;92.10;;;;;;4952885;29;20035;-74
2023/06/14 05:43:31;;;;;;;7.57;3.20;;;23.70;91.10;;;;;;4944716;29;20134;-76
2023/06/14 05:45:57;;;;;;;5.82;3.10;;;24.20;90.30;;;;;;4947157;29;20023;-74
2023/06/14 05:48:23;;;;;;;8.60;2.80;;;24.90;88.30;;;;;;4962700;28;20082;-76
2023/06/14 05:50:48;;;;;;;5.95;2.97;;;25.60;86.10;;;;;;4967745;28;20051;-74
2023/06/14 05:53:14;;;;;;;6.47;2.42;;;26.20;84.00;;;;;;4930939;29;20035;-75
2023/06/14 05:55:40;;;;;;;8.27;2.90;;;26.70;82.80;;;;;;4944911;29;20033;-74
2023/06/14 05:58:05;;;;;;;6.57;2.97;;;27.20;80.80;;;;;;4940188;29;20047;-75
2023/06/14 06:00:31;;;;;;;13.05;3.42;;;27.60;79.70;;;;;;4950247;29;20086;-75
2023/06/14 06:02:57;;;;;;;5.82;2.58;;;28.10;78.20;;;;;;4939651;29;20055;-77
2023/06/14 06:05:23;;;;;;;8.45;2.75;;;28.50;77.40;;;;;;4950951;29;20045;-75
2023/06/14 06:07:49;;;;;;;6.53;2.72;;;28.60;76.30;;;;;;4953823;29;20046;-79
2023/06/14 06:10:15;;;;;;;5.10;2.90;;;28.80;75.30;;;;;;4948304;28;20036;-77
2023/06/14 06:12:42;;;;;;;11.55;3.28;;;28.90;75.20;;;;;;4966698;28;20035;-78
2023/06/14 06:15:11;;;;;;;6.75;2.60;;;29.20;74.60;;;;;;4953634;29;20071;-77
2023/06/14 06:17:37;;;;;;;11.00;2.88;;;29.60;73.20;;;;;;4946958;29;20471;-78
2023/06/14 06:20:05;;;;;;;9.88;2.78;;;30.00;72.80;;;;;;4940609;29;20079;-77
2023/06/14 06:22:31;;;;;;;5.85;2.83;;;30.30;71.40;;;;;;4950985;28;20031;-77
2023/06/14 06:24:56;;;;;;;6.07;3.10;;;30.40;71.00;;;;;;4944568;29;20027;-76
2023/06/14 06:27:22;;;;;;;7.60;3.05;;;30.70;70.20;;;;;;4952519;29;20062;-75
2023/06/14 06:29:48;;;;;;;6.30;2.70;;;30.70;69.40;;;;;;4935952;29;20024;-76
2023/06/14 06:32:14;;;;;;;10.05;3.28;;;31.00;69.30;;;;;;4951041;29;20043;-76
2023/06/14 06:34:40;;;;;;;8.20;3.05;;;31.30;68.80;;;;;;4960950;28;20074;-76
2023/06/14 06:37:06;;;;;;;9.85;3.33;;;31.30;68.30;;;;;;4969415;28;20671;-74
2023/06/14 06:39:31;;;;;;;5.95;2.70;;;31.60;68.00;;;;;;4954245;29;20059;-75
2023/06/14 06:41:57;;;;;;;13.27;3.60;;;31.80;67.30;;;;;;4950705;29;20051;-74
2023/06/14 06:44:23;;;;;;;9.43;2.90;;;31.60;67.30;;;;;;4956701;29;20042;-76
2023/06/14 06:46:48;;;;;;;8.65;3.10;;;31.70;67.20;;;;;;4956940;29;20027;-76
2023/06/14 06:49:14;;;;;;;8.05;2.83;;;31.80;67.00;;;;;;4959371;28;20027;-77
2023/06/14 06:51:43;;;;;;;12.05;3.15;;;32.10;66.60;;;;;;4971410;28;20058;-77
2023/06/14 06:54:09;;;;;;;12.75;3.22;;;32.10;66.10;;;;;;4961164;28;20036;-75
2023/06/14 06:56:35;;;;;;;8.60;2.80;;;31.90;65.80;;;;;;4956446;29;20034;-75
2023/06/14 06:59:00;;;;;;;10.07;3.17;;;31.80;66.00;;;;;;4956687;29;20064;-75
2023/06/14 07:01:28;;;;;;;12.55;3.35;;;32.00;65.80;;;;;;4939332;29;20031;-75
2023/06/14 07:03:54;;;;;;;7.38;3.15;;;32.40;65.20;;;;;;4956520;29;20031;-76
2023/06/14 07:06:20;;;;;;;8.18;3.17;;;32.90;64.50;;;;;;4956330;29;20035;-77
2023/06/14 07:08:48;;;;;;;6.82;2.92;;;33.30;63.80;;;;;;4939009;28;20032;-75
2023/06/14 07:11:14;;;;;;;9.02;3.15;;;33.70;63.20;;;;;;4956016;29;20127;-75
2023/06/14 07:13:40;;;;;;;6.35;2.88;;;34.10;62.50;;;;;;4956300;29;20050;-77
2023/06/14 07:16:05;;;;;;;9.73;3.47;;;34.30;62.00;;;;;;4956111;28;20031;-75
2023/06/14 07:18:31;;;;;;;12.93;3.70;;;34.50;61.30;;;;;;4956228;28;20024;-75
2023/06/14 07:20:57;;;;;;;10.38;3.72;;;34.50;61.30;;;;;;4955653;29;20035;-75
2023/06/14 07:23:23;;;;;;;9.57;3.50;;;34.60;60.90;;;;;;4955142;29;20035;-75
2023/06/14 07:25:49;;;;;;;13.07;4.25;;;34.50;60.80;;;;;;4955955;29;20038;-76
2023/06/14 07:28:15;;;;;;;12.15;3.45;;;34.40;61.00;;;;;;4956485;29;20458;-75
2023/06/14 07:30:41;;;;;;;10.57;3.83;;;34.30;61.40;;;;;;4954362;29;20504;-75
2023/06/14 07:33:08;;;;;;;7.40;3.60;;;34.10;61.30;;;;;;4954470;28;20110;-75
2023/06/14 07:35:33;;;;;;;10.80;4.25;;;34.10;61.30;;;;;;4954621;29;20168;-76
2023/06/14 07:37:59;;;;;;;8.10;3.28;;;34.10;61.20;;;;;;4956520;28;20129;-76
2023/06/14 07:40:25;;;;;;;9.77;3.58;;;34.10;61.20;;;;;;4956168;28;20061;-75
2023/06/14 07:42:50;;;;;;;10.60;3.53;;;34.00;61.20;;;;;;4954417;29;20047;-75
2023/06/14 07:45:16;;;;;;;7.38;3.35;;;34.00;61.50;;;;;;4937109;29;20027;-76
2023/06/14 07:47:42;;;;;;;12.60;4.13;;;33.80;61.40;;;;;;4954566;29;20038;-74
2023/06/14 07:50:08;;;;;;;13.13;4.13;;;33.70;61.80;;;;;;4954349;29;20082;-75
2023/06/14 07:52:33;;;;;;;9.60;3.63;;;33.30;61.90;;;;;;4953554;29;20118;-75
2023/06/14 07:55:00;;;;;;;12.23;3.90;;;32.80;62.30;;;;;;4919352;29;20103;-75
2023/06/14 07:57:25;;;;;;;11.68;3.65;;;32.50;62.90;;;;;;4933978;29;20031;-75
2023/06/14 07:59:51;;;;;;;11.35;3.90;;;32.10;63.30;;;;;;4955012;29;20031;-74
2023/06/14 08:02:16;;;;;;;6.75;3.75;;;31.70;63.90;;;;;;4947893;29;20039;-75
2023/06/14 08:04:42;;;;;;;8.50;4.25;;;31.30;64.40;;;;;;4955193;29;20037;-75
2023/06/14 08:07:08;;;;;;;8.95;3.40;;;30.90;64.40;;;;;;4949445;29;20107;-75
2023/06/14 08:09:37;;;;;;;7.63;3.72;;;30.70;65.20;;;;;;4936426;29;20028;-75
2023/06/14 08:12:03;;;;;;;10.55;3.60;;;30.50;65.10;;;;;;4949247;29;20057;-75
2023/06/14 08:14:29;;;;;;;14.35;3.85;;;30.50;65.10;;;;;;4935398;29;20035;-75
2023/06/14 08:16:55;;;;;;;7.55;3.17;;;30.60;64.40;;;;;;4950650;29;20432;-76
2023/06/14 08:19:20;;;;;;;9.15;3.55;;;30.80;64.40;;;;;;4943636;29;20396;-74
2023/06/14 08:21:47;;;;;;;7.70;3.35;;;31.20;64.50;;;;;;4943666;29;20046;-76
2023/06/14 08:24:12;;;;;;;9.73;3.10;;;31.70;64.40;;;;;;4950277;28;20051;-75
2023/06/14 08:26:39;;;;;;;10.88;3.70;;;32.40;62.80;;;;;;4939265;29;20055;-76
2023/06/14 08:29:06;;;;;;;11.18;3.35;;;33.10;61.50;;;;;;4950734;29;20035;-76
2023/06/14 08:31:32;;;;;;;7.90;3.20;;;33.80;60.90;;;;;;4945228;29;20122;-74
2023/06/14 08:33:58;;;;;;;5.90;3.72;;;34.20;60.40;;;;;;4952141;29;20038;-77
2023/06/14 08:36:24;;;;;;;8.25;2.78;;;34.70;59.70;;;;;;4938882;29;20039;-77
2023/06/14 08:38:51;;;;;;;7.97;2.92;;;35.20;58.90;;;;;;4951353;29;20035;-76
2023/06/14 08:41:24;;;;;;;8.60;2.92;;;35.50;58.20;;;;;;4942272;29;20365;-74
2023/06/14 08:43:50;;;;;;;6.38;3.00;;;35.90;58.20;;;;;;4943217;29;20108;-75
2023/06/14 08:46:19;;;;;;;8.27;2.72;;;36.50;57.30;;;;;;4949921;28;20035;-75
2023/06/14 08:48:46;;;;;;;10.15;2.90;;;36.90;56.80;;;;;;4939027;29;20076;-75
2023/06/14 08:51:15;;;;;;;4.63;2.75;;;37.10;56.10;;;;;;4947479;29;20086;-75
2023/06/14 08:53:42;;;;;;;6.75;3.08;;;37.30;56.10;;;;;;4946271;29;20027;-75
2023/06/14 08:56:13;;;;;;;6.25;2.90;;;37.50;55.40;;;;;;4940739;29;20078;-75
2023/06/14 08:58:44;;;;;;;5.13;3.05;;;37.30;55.30;;;;;;4951070;29;20046;-75
2023/06/14 09:01:16;;;;;;;6.88;2.75;;;37.40;55.60;;;;;;4941403;28;20041;-75
2023/06/14 09:03:42;;;;;;;8.27;2.58;;;37.60;55.00;;;;;;4943755;29;20028;-77
2023/06/14 09:06:13;;;;;;;7.80;2.63;;;37.60;54.30;;;;;;4948985;29;20031;-77
2023/06/14 09:08:42;;;;;;;9.70;2.70;;;37.70;53.90;;;;;;4938538;29;20467;-77
2023/06/14 09:11:10;;;;;;;6.68;2.35;;;37.70;53.80;;;;;;4947819;29;20400;-75
2023/06/14 09:13:35;;;;;;;6.93;2.70;;;37.70;53.70;;;;;;4944780;29;20391;-75
2023/06/14 09:16:01;;;;;;;7.80;2.40;;;38.10;53.60;;;;;;4942008;29;20043;-76
2023/06/14 09:18:58;;;;;;;5.97;2.40;;;38.30;52.80;;;;;;4950764;29;20038;-78
2023/06/14 09:21:24;;;;;;;6.60;2.85;;;38.20;52.90;;;;;;4905625;29;20035;-75
2023/06/14 09:23:50;;;;;;;7.85;2.60;;;38.10;52.60;;;;;;4942440;29;20054;-75
2023/06/14 09:26:17;;;;;;;5.32;2.22;;;38.30;52.80;;;;;;4949798;29;20023;-77
2023/06/14 09:28:45;;;;;;;6.85;2.42;;;38.60;51.70;;;;;;4938334;29;20079;-76
2023/06/14 09:31:12;;;;;;;6.38;2.50;;;38.60;51.50;;;;;;4959915;28;20115;-75
2023/06/14 09:33:37;;;;;;;6.53;2.67;;;38.70;52.30;;;;;;4963785;28;20450;-75
2023/06/14 09:36:04;;;;;;;9.50;2.40;;;38.70;51.60;;;;;;4971157;28;20495;-77
2023/06/14 09:38:30;;;;;;;4.68;2.35;;;38.80;51.30;;;;;;4955626;28;20471;-77
2023/06/14 09:40:58;;;;;;;4.05;2.20;;;39.10;51.30;;;;;;4947817;29;20039;-76
2023/06/14 09:43:26;;;;;;;2.53;2.20;;;39.40;50.30;;;;;;4941547;29;20055;-77
2023/06/14 09:45:52;;;;;;;7.35;2.30;;;39.20;50.10;;;;;;4940920;29;20028;-75
2023/06/14 09:48:19;;;;;;;7.40;2.10;;;38.90;50.50;;;;;;4949975;29;20050;-76
2023/06/14 09:50:50;;;;;;;4.70;2.28;;;39.00;50.80;;;;;;4938002;29;20464;-75
2023/06/14 09:53:20;;;;;;;5.32;2.03;;;39.30;50.80;;;;;;4942104;29;20452;-75
2023/06/14 09:55:49;;;;;;;3.83;2.00;;;39.50;50.60;;;;;;4954175;29;20100;-75
2023/06/14 09:58:16;;;;;;;4.50;2.13;;;39.70;49.70;;;;;;4935253;29;20039;-75
2023/06/14 10:00:43;;;;;;;2.95;2.17;;;39.60;48.90;;;;;;4955946;29;20237;-75
2023/06/14 10:03:19;;;;;;;7.88;2.40;;;39.30;49.20;;;;;;4943330;29;20051;-76
2023/06/14 10:05:47;;;;;;;4.93;2.17;;;39.30;49.50;;;;;;4957443;29;20024;-76
2023/06/14 10:08:19;;;;;;;7.97;2.47;;;39.30;49.70;;;;;;4953319;29;20082;-75
2023/06/14 10:10:45;;;;;;;9.43;2.50;;;39.30;49.80;;;;;;4954487;29;20032;-75
2023/06/14 10:13:12;;;;;;;6.90;2.25;;;39.40;49.70;;;;;;4945093;28;20399;-75
2023/06/14 10:16:00;;;;;;;5.25;2.20;;;39.40;49.70;;;;;;4947615;29;20040;-76
2023/06/14 10:18:35;;;;;;;4.82;2.30;;;39.50;49.40;;;;;;4953930;29;20476;-75
2023/06/14 10:21:36;;;;;;;4.88;2.22;;;39.80;49.10;;;;;;4941219;29;20114;-76
2023/06/14 10:24:06;;;;;;;6.43;2.35;;;40.10;49.00;;;;;;4954475;28;20380;-75
2023/06/14 10:26:32;;;;;;;4.78;2.35;;;40.20;48.80;;;;;;4954083;29;20110;-78
2023/06/14 10:29:07;;;;;;;5.13;2.17;;;39.90;48.90;;;;;;4950436;29;20110;-77
2023/06/14 10:31:50;;;;;;;6.60;1.90;;;39.60;49.90;;;;;;4951806;29;20046;-75
2023/06/14 10:34:26;;;;;;;7.20;2.20;;;39.50;49.10;;;;;;4956924;29;20031;-75
2023/06/14 10:37:02;;;;;;;9.27;2.15;;;39.30;49.50;;;;;;4941978;29;20472;-75
2023/06/14 10:39:28;;;;;;;4.60;1.80;;;39.30;49.60;;;;;;4948391;29;20031;-75
2023/06/14 10:41:56;;;;;;;5.95;2.20;;;39.30;49.10;;;;;;4949491;29;20186;-78
2023/06/14 10:44:22;;;;;;;5.80;1.90;;;39.10;49.10;;;;;;4940738;29;20060;-74
2023/06/14 10:46:52;;;;;;;3.45;1.80;;;38.80;49.50;;;;;;4953331;29;20111;-76
2023/06/14 10:49:19;;;;;;;4.53;2.10;;;38.70;49.60;;;;;;4944848;29;20043;-76
2023/06/14 10:51:57;;;;;;;4.68;1.77;;;38.50;49.60;;;;;;4945628;29;20440;-76
2023/06/14 10:54:23;;;;;;;3.17;1.88;;;38.00;49.60;;;;;;4953363;29;20035;-75
2023/06/14 10:56:51;;;;;;;3.90;1.98;;;37.90;49.90;;;;;;4940803;29;20023;-75
2023/06/14 10:59:18;;;;;;;6.57;2.10;;;37.90;49.50;;;;;;4949311;29;20453;-75
2023/06/14 11:02:19;;;;;;;3.38;2.13;;;37.80;49.90;;;;;;4948575;29;20031;-78
2023/06/14 11:04:52;;;;;;;2.93;2.07;;;37.70;50.20;;;;;;4931246;29;20098;-75
2023/06/14 11:08:02;;;;;;;2.90;2.00;;;37.80;50.20;;;;;;4944608;29;20035;-77
2023/06/14 11:10:41;;;;;;;11.40;2.40;;;38.30;50.90;;;;;;4949073;29;20799;-74
2023/06/14 11:13:07;;;;;;;7.90;2.10;;;38.30;49.60;;;;;;4950571;29;20032;-76
2023/06/14 11:15:34;;;;;;;4.57;2.28;;;38.00;49.90;;;;;;4939151;29;20039;-75
2023/06/14 11:18:02;;;;;;;6.03;2.13;;;38.00;49.90;;;;;;4943502;29;20031;-75
2023/06/14 11:20:32;;;;;;;4.88;2.10;;;37.90;49.70;;;;;;4952893;29;20035;-75
2023/06/14 11:22:58;;;;;;;4.25;2.05;;;37.70;50.10;;;;;;4941363;29;20027;-77
2023/06/14 11:25:24;;;;;;;5.32;2.13;;;37.70;50.30;;;;;;4934840;29;20380;-75
2023/06/14 11:27:50;;;;;;;5.20;2.17;;;38.00;50.40;;;;;;4943269;29;20059;-75
2023/06/14 11:30:17;;;;;;;4.20;2.17;;;38.20;50.30;;;;;;4950417;29;20477;-76
2023/06/14 11:32:45;;;;;;;4.05;2.17;;;38.30;50.30;;;;;;4940179;29;20392;-76
2023/06/14 11:35:11;;;;;;;5.63;1.88;;;38.50;50.60;;;;;;4949907;29;20024;-75
2023/06/14 11:37:38;;;;;;;8.13;2.13;;;38.70;50.10;;;;;;4947029;29;20396;-77
2023/06/14 11:40:09;;;;;;;4.28;1.70;;;38.80;50.00;;;;;;4931190;29;20071;-75
2023/06/14 11:42:35;;;;;;;3.70;1.92;;;38.60;49.90;;;;;;4955931;29;20051;-76
2023/06/14 11:45:02;;;;;;;4.40;1.67;;;38.50;49.80;;;;;;4950666;29;20114;-75
2023/06/14 11:47:33;;;;;;;6.07;2.15;;;38.50;49.60;;;;;;4945609;29;20036;-76
2023/06/14 11:49:59;;;;;;;3.60;1.73;;;38.10;49.80;;;;;;4943148;29;20047;-75
2023/06/14 11:52:25;;;;;;;5.25;2.45;;;37.80;49.90;;;;;;4952481;29;20288;-75
2023/06/14 11:54:51;;;;;;;3.40;1.80;;;37.80;50.80;;;;;;4940258;29;20375;-75
2023/06/14 11:57:18;;;;;;;5.13;1.83;;;37.80;49.50;;;;;;4948603;29;20024;-75
2023/06/14 11:59:44;;;;;;;4.45;2.00;;;37.40;50.10;;;;;;4947476;29;20039;-75
2023/06/14 12:02:13;;;;;;;7.63;2.00;;;37.30;50.40;;;;;;4941427;29;20035;-75
2023/06/14 12:04:41;;;;;;;4.70;1.80;;;37.40;50.10;;;;;;4952201;29;20067;-75
2023/06/14 12:07:15;;;;;;;4.90;2.05;;;37.60;50.00;;;;;;4942167;29;20119;-76
2023/06/14 12:09:53;;;;;;;7.75;2.20;;;37.90;49.60;;;;;;4934983;29;20043;-74
2023/06/14 12:12:21;;;;;;;4.82;1.80;;;38.00;49.60;;;;;;4951871;29;20472;-76
2023/06/14 12:14:47;;;;;;;6.90;1.80;;;38.10;49.40;;;;;;4939738;29;20023;-76
2023/06/14 12:17:12;;;;;;;5.97;1.92;;;38.10;49.30;;;;;;4948683;29;20035;-78
2023/06/14 12:19:45;;;;;;;5.05;2.10;;;38.00;49.80;;;;;;4945850;28;20082;-73
2023/06/14 12:22:12;;;;;;;6.63;2.00;;;37.80;49.10;;;;;;4940671;29;20078;-76
2023/06/14 12:24:37;;;;;;;6.97;2.15;;;37.80;49.40;;;;;;4952083;29;20082;-75
2023/06/14 12:27:04;;;;;;;2.75;1.58;;;38.00;49.30;;;;;;4941640;29;20031;-74
2023/06/14 12:29:30;;;;;;;3.70;1.63;;;38.10;48.70;;;;;;4946467;29;20098;-75
2023/06/14 12:31:56;;;;;;;10.25;2.33;;;38.10;48.50;;;;;;4942327;29;20428;-75
2023/06/14 12:34:26;;;;;;;3.75;1.40;;;37.90;49.10;;;;;;4950250;29;20050;-77
2023/06/14 12:36:53;;;;;;;5.20;2.08;;;37.70;49.60;;;;;;4939084;29;20490;-75
2023/06/14 12:39:18;;;;;;;5.70;2.00;;;37.30;49.30;;;;;;4945161;29;20015;-80
2023/06/14 12:41:44;;;;;;;5.82;2.00;;;37.00;49.80;;;;;;4954048;29;20062;-75
2023/06/14 12:44:13;;;;;;;3.72;1.85;;;36.90;50.30;;;;;;4952455;28;20031;-75